createdAt,value
2018-07-16T00:02:10.521Z,99.90
2018-07-16T00:04:40.545Z,99.90
2018-07-16T00:07:09.844Z,99.90
2018-07-16T00:09:39.051Z,99.90
2018-07-16T00:12:09.904Z,99.90
2018-07-16T00:14:39.179Z,99.90
2018-07-16T00:35:14.038Z,99.90
2018-07-16T00:37:43.782Z,99.90
2018-07-16T00:40:13.062Z,99.90
2018-07-16T00:42:42.337Z,99.90
2018-07-16T00:45:11.878Z,99.90
2018-07-16T00:47:41.042Z,99.90
2018-07-16T00:50:10.262Z,99.90
2018-07-16T00:52:39.524Z,99.90
2018-07-16T00:57:37.703Z,99.90
2018-07-16T01:00:07.036Z,99.90
2018-07-16T01:02:36.355Z,99.90
2018-07-16T01:05:06.638Z,99.90
2018-07-16T01:07:35.907Z,99.90
2018-07-16T01:28:11.617Z,99.90
2018-07-16T01:30:42.134Z,99.90
2018-07-16T01:33:11.857Z,99.90
2018-07-16T01:35:41.255Z,99.90
2018-07-16T01:38:10.526Z,99.90
2018-07-16T01:40:39.802Z,99.90
2018-07-16T02:01:08.531Z,99.90
2018-07-16T02:03:38.627Z,99.90
2018-07-16T02:24:13.122Z,99.90
2018-07-16T02:26:42.542Z,99.90
2018-07-16T02:29:11.801Z,99.90
2018-07-16T02:31:41.056Z,99.90
2018-07-16T02:34:10.529Z,99.90
2018-07-16T02:36:39.786Z,99.90
2018-07-16T02:39:09.011Z,99.90
2018-07-16T02:41:38.349Z,99.90
2018-07-16T02:44:07.609Z,99.90
2018-07-16T02:46:36.846Z,99.90
2018-07-16T02:49:06.141Z,99.90
2018-07-16T02:51:35.423Z,99.90
2018-07-16T02:54:05.521Z,99.90
2018-07-16T02:56:34.857Z,99.90
2018-07-16T02:59:04.071Z,99.90
2018-07-16T03:04:03.413Z,99.90
2018-07-16T03:06:32.706Z,99.90
2018-07-16T03:09:02.678Z,99.90
2018-07-16T03:11:32.157Z,99.90
2018-07-16T03:14:02.438Z,99.90
2018-07-16T03:16:32.451Z,99.90
2018-07-16T03:39:28.896Z,99.90
2018-07-16T03:41:58.367Z,99.90
2018-07-16T03:44:27.612Z,99.90
2018-07-16T03:46:57.105Z,99.90
2018-07-16T03:49:27.073Z,99.90
2018-07-16T03:51:56.393Z,99.90
2018-07-16T03:54:26.552Z,99.90
2018-07-16T03:56:56.120Z,99.90
2018-07-16T03:59:25.345Z,99.90
2018-07-16T04:01:54.654Z,99.90
2018-07-16T04:24:50.356Z,99.90
2018-07-16T04:27:19.551Z,99.90
2018-07-16T04:29:48.810Z,99.90
2018-07-16T04:32:18.067Z,99.90
2018-07-16T04:34:48.783Z,99.90
2018-07-16T04:37:18.026Z,99.90
2018-07-16T04:39:48.095Z,99.90
2018-07-16T04:42:17.342Z,99.90
2018-07-16T04:44:46.589Z,99.90
2018-07-16T04:47:15.834Z,99.90
2018-07-16T04:49:45.140Z,99.90
2018-07-16T04:52:15.186Z,99.90
2018-07-16T04:54:45.235Z,99.90
2018-07-16T04:57:14.729Z,99.90
2018-07-16T04:59:44.031Z,99.90
2018-07-16T05:22:47.112Z,99.90
2018-07-16T05:25:16.353Z,99.90
2018-07-16T05:27:45.816Z,99.90
2018-07-16T05:30:15.113Z,99.90
2018-07-16T05:32:44.524Z,99.90
2018-07-16T05:35:13.730Z,99.90
2018-07-16T05:37:43.081Z,99.90
2018-07-16T05:40:12.518Z,99.90
2018-07-16T05:42:41.922Z,99.90
2018-07-16T05:45:12.258Z,99.90
2018-07-16T05:47:41.548Z,99.90
2018-07-16T06:08:14.712Z,99.90
2018-07-16T06:10:44.075Z,99.90
2018-07-16T06:13:13.245Z,99.90
2018-07-16T06:15:42.771Z,99.90
2018-07-16T06:18:12.918Z,99.90
2018-07-16T06:20:42.330Z,99.90
2018-07-16T06:23:12.870Z,99.90
2018-07-16T06:25:42.050Z,99.90
2018-07-16T06:28:11.258Z,99.90
2018-07-16T06:30:41.106Z,99.90
2018-07-16T06:33:10.275Z,99.90
2018-07-16T06:35:39.505Z,99.90
2018-07-16T06:38:08.797Z,99.90
2018-07-16T06:40:38.093Z,99.90
2018-07-16T06:43:08.397Z,99.90
2018-07-16T06:45:37.628Z,99.90
2018-07-16T07:06:12.340Z,99.90
2018-07-16T07:08:41.500Z,99.90
2018-07-16T07:11:12.757Z,99.90
2018-07-16T07:13:41.900Z,99.90
2018-07-16T07:16:11.261Z,99.90
2018-07-16T07:18:40.582Z,99.90
2018-07-16T07:21:09.881Z,99.90
2018-07-16T07:23:39.928Z,99.90
2018-07-16T07:26:09.149Z,99.90
2018-07-16T07:28:38.868Z,99.90
2018-07-16T07:31:08.168Z,99.90
2018-07-16T07:33:37.364Z,99.90
2018-07-16T07:36:06.679Z,99.90
2018-07-16T07:38:36.003Z,99.90
2018-07-16T07:41:05.248Z,99.90
2018-07-16T07:43:34.503Z,99.90
2018-07-16T07:46:03.779Z,99.90
2018-07-16T07:48:33.582Z,99.90
2018-07-16T07:51:03.495Z,99.90
2018-07-16T07:53:32.816Z,99.90
2018-07-16T07:56:02.210Z,99.90
2018-07-16T07:58:32.118Z,99.90
2018-07-16T08:01:02.083Z,99.90
2018-07-16T08:03:32.078Z,99.90
2018-07-16T08:06:07.422Z,99.90
2018-07-16T08:08:37.648Z,99.90
2018-07-16T08:29:10.889Z,99.90
2018-07-16T08:31:40.699Z,99.90
2018-07-16T08:34:09.956Z,99.90
2018-07-16T08:36:39.211Z,99.90
2018-07-16T08:39:09.434Z,99.90
2018-07-16T08:41:38.886Z,99.90
2018-07-16T08:44:08.084Z,99.90
2018-07-16T08:46:37.498Z,99.90
2018-07-16T08:49:07.002Z,99.90
2018-07-16T08:51:36.303Z,99.90
2018-07-16T08:54:05.842Z,99.90
2018-07-16T08:56:35.077Z,99.90
2018-07-16T08:59:05.605Z,99.90
2018-07-16T09:19:39.338Z,99.90
2018-07-16T09:22:09.309Z,99.90
2018-07-16T09:24:39.569Z,99.90
2018-07-16T09:27:09.010Z,99.90
2018-07-16T09:29:38.266Z,99.90
2018-07-16T09:32:07.533Z,99.90
2018-07-16T09:34:38.305Z,99.90
2018-07-16T09:37:08.229Z,99.90
2018-07-16T09:39:39.397Z,99.90
2018-07-16T09:42:08.696Z,99.90
2018-07-16T09:44:38.672Z,99.90
2018-07-16T09:47:07.893Z,99.90
2018-07-16T09:49:37.937Z,99.90
2018-07-16T09:54:36.597Z,99.90
2018-07-16T09:57:05.876Z,99.90
2018-07-16T09:59:35.683Z,99.90
2018-07-16T10:02:10.597Z,99.90
2018-07-16T10:04:40.531Z,99.90
2018-07-16T10:25:14.139Z,99.90
2018-07-16T10:27:43.359Z,99.90
2018-07-16T10:30:13.519Z,99.90
2018-07-16T10:32:42.741Z,99.90
2018-07-16T10:35:12.680Z,99.90
2018-07-16T10:55:47.493Z,96.80
2018-07-16T10:58:17.477Z,94.80
2018-07-16T11:00:47.359Z,90.20
2018-07-16T11:03:16.581Z,87.20
2018-07-16T11:05:45.826Z,83.60
2018-07-16T11:08:15.219Z,87.50
2018-07-16T11:10:45.136Z,92.40
2018-07-16T11:13:14.328Z,92.10
2018-07-16T11:15:44.404Z,86.50
2018-07-16T11:18:13.687Z,86.90
2018-07-16T11:38:46.633Z,88.20
2018-07-16T11:41:15.833Z,82.10
2018-07-16T11:43:45.919Z,76.40
2018-07-16T11:46:15.262Z,80.60
2018-07-16T11:48:44.430Z,80.60
2018-07-16T11:51:13.777Z,76.80
2018-07-16T11:53:44.449Z,74.40
2018-07-16T11:56:13.823Z,71.70
2018-07-16T11:58:43.700Z,70.20
2018-07-16T12:01:13.307Z,71.70
2018-07-16T12:21:47.124Z,63.40
2018-07-16T12:24:16.372Z,66.90
2018-07-16T12:26:45.652Z,64.30
2018-07-16T12:29:16.453Z,54.40
2018-07-16T12:31:45.727Z,58.80
2018-07-16T12:34:14.914Z,55.50
2018-07-16T12:36:44.182Z,56.40
2018-07-16T12:39:13.331Z,57.00
2018-07-16T12:41:43.411Z,53.00
2018-07-16T12:44:12.620Z,50.20
2018-07-16T12:46:41.854Z,48.20
2018-07-16T12:49:12.695Z,50.30
2018-07-16T12:51:42.585Z,50.10
2018-07-16T12:54:11.866Z,54.00
2018-07-16T12:56:41.766Z,53.70
2018-07-16T12:59:11.246Z,52.80
2018-07-16T13:01:40.639Z,52.30
2018-07-16T13:04:09.849Z,50.90
2018-07-16T13:06:39.443Z,52.40
2018-07-16T13:09:09.087Z,49.80
2018-07-16T13:11:38.409Z,49.30
2018-07-16T13:14:08.290Z,50.50
2018-07-16T13:16:38.116Z,50.10
2018-07-16T13:19:07.846Z,52.40
2018-07-16T13:21:37.926Z,48.60
2018-07-16T13:42:18.941Z,46.30
2018-07-16T13:44:48.279Z,43.70
2018-07-16T13:47:17.505Z,44.10
2018-07-16T13:49:46.953Z,42.10
2018-07-16T13:52:16.289Z,42.30
2018-07-16T13:54:46.142Z,41.80
2018-07-16T13:57:15.421Z,47.00
2018-07-16T13:59:44.686Z,47.30
2018-07-16T14:02:13.925Z,47.30
2018-07-16T14:04:43.368Z,47.20
2018-07-16T14:07:12.606Z,47.70
2018-07-16T14:09:41.834Z,47.60
2018-07-16T14:12:11.162Z,46.70
2018-07-16T14:14:40.409Z,45.20
2018-07-16T14:17:09.709Z,45.60
2018-07-16T14:19:39.228Z,43.90
2018-07-16T14:22:08.679Z,43.40
2018-07-16T14:24:37.957Z,43.00
2018-07-16T14:27:07.519Z,44.00
2018-07-16T14:29:36.819Z,43.50
2018-07-16T14:32:06.068Z,44.30
2018-07-16T14:34:35.361Z,44.70
2018-07-16T14:37:04.566Z,42.80
2018-07-16T14:39:34.498Z,42.40
2018-07-16T14:42:04.342Z,43.10
2018-07-16T15:02:39.499Z,44.40
2018-07-16T15:23:13.886Z,42.80
2018-07-16T15:43:47.702Z,38.70
2018-07-16T16:04:21.599Z,38.30
2018-07-16T16:24:55.490Z,43.70
2018-07-16T16:45:29.553Z,46.90
2018-07-16T17:06:04.526Z,47.60
2018-07-16T17:08:33.863Z,49.20
2018-07-16T17:13:31.869Z,51.20
2018-07-16T17:16:01.361Z,50.00
2018-07-16T17:18:31.884Z,50.50
2018-07-16T17:21:02.426Z,51.60
2018-07-16T17:41:36.296Z,54.60
2018-07-16T17:44:05.845Z,55.20
2018-07-16T17:46:35.029Z,54.50
2018-07-16T17:49:04.632Z,55.10
2018-07-16T18:09:39.457Z,55.90
2018-07-16T18:12:08.721Z,55.90
2018-07-16T18:14:37.955Z,56.10
2018-07-16T18:17:07.214Z,56.60
2018-07-16T18:19:38.702Z,57.80
2018-07-16T18:22:08.658Z,57.60
2018-07-16T18:42:42.139Z,61.50
2018-07-16T18:45:11.443Z,62.50
2018-07-16T18:47:41.408Z,62.30
2018-07-16T18:50:10.949Z,62.70
2018-07-16T18:52:40.276Z,62.10
2018-07-16T18:55:10.209Z,66.30
2018-07-16T18:57:40.328Z,63.70
2018-07-16T19:00:10.350Z,63.40
2018-07-16T19:02:39.582Z,63.80
2018-07-16T19:05:08.778Z,64.80
2018-07-16T19:07:38.082Z,65.30
2018-07-16T19:10:07.349Z,67.40
2018-07-16T19:12:36.573Z,68.60
2018-07-16T19:15:13.101Z,67.60
2018-07-16T19:17:42.852Z,68.10
2018-07-16T19:38:09.964Z,75.20
2018-07-16T19:40:40.498Z,78.00
2018-07-16T20:01:14.265Z,81.40
2018-07-16T20:03:43.554Z,81.10
2018-07-16T20:06:12.936Z,82.60
2018-07-16T20:08:42.197Z,81.80
2018-07-16T20:11:11.577Z,84.90
2018-07-16T20:31:39.297Z,93.80
2018-07-16T20:52:13.310Z,93.90
2018-07-16T20:54:44.727Z,94.70
2018-07-16T20:57:14.118Z,94.90
2018-07-16T20:59:43.430Z,97.70
2018-07-16T21:02:12.669Z,99.90
2018-07-16T21:22:47.082Z,99.90
2018-07-16T21:25:16.424Z,99.90
2018-07-16T21:27:45.685Z,99.90
2018-07-16T21:48:19.459Z,99.90
2018-07-16T21:50:48.767Z,99.90
2018-07-16T22:11:23.977Z,99.90
2018-07-16T22:13:53.855Z,99.90
2018-07-16T22:16:23.179Z,99.90
2018-07-16T22:36:56.631Z,99.90
2018-07-16T22:39:25.790Z,99.90
2018-07-16T22:41:55.283Z,99.90
2018-07-16T22:44:24.912Z,99.90
2018-07-16T22:46:54.837Z,99.90
2018-07-16T22:49:24.059Z,99.90
2018-07-16T22:51:53.381Z,99.90
2018-07-16T22:54:22.819Z,99.90
2018-07-16T22:56:52.618Z,99.90
2018-07-16T22:59:22.394Z,99.90
2018-07-16T23:19:56.211Z,99.90
2018-07-16T23:22:25.408Z,99.90
2018-07-16T23:42:59.299Z,99.90
2018-07-16T23:45:29.408Z,99.90
2018-07-16T23:47:58.726Z,99.90
2018-07-16T23:50:28.865Z,99.90
2018-07-16T23:52:58.138Z,99.90
